Airfield :
LOGIN :

Register | Disclaimer

   EN    FR    IT 

 










Legend :    VFR   Marginal VFR   IFR   Intensive IFR   Very Intensive IFR
Visi :
Ceiling :
>= 8 km
>= 3000ft
5 to 8 km
1000 to 3000 ft
1500m to 5 km
500 to 1000 ft
800 to 1500m
200 to 500 ft
< 800m
< 200 ft
Symbols :   Thunderstorms  Fog  Heavy snow  Heavy precipitations  Wind > 20 kt
SIGMETs :     Misc.  Thunderstorms  Icing  Turbulence  Mountain Waves  Volcanic Ashes







- Airport Elevation : 291 ft
- IATA code : ORY
- Download approach charts


LFPO - Paris-Orly

CURRENT METAR :
  • 211300Z 23004KT 140V310 9999 FEW033 SCT260 15/07 Q1028 NOSIG

EXPIRED METARs :
  • 211230Z VRB02KT CAVOK 15/07 Q1028 NOSIG
  • 211200Z VRB02KT CAVOK 14/06 Q1029 NOSIG
  • 211130Z VRB02KT CAVOK 13/07 Q1029 NOSIG
  • 211100Z VRB03KT CAVOK 12/07 Q1028 NOSIG
  • 211030Z 16004KT CAVOK 11/06 Q1028 NOSIG

TAF TAF LFPO
Valid from the 21 at 12:00 until the 22 at 18:00 UTC


211100Z 2112/2218 22005KT CAVOK
BECMG 2123/2201 3000 BR
PROB40
TEMPO 2202/2208 0800 BCFG VV///
PROB30
TEMPO 2204/2207 0200 FG
BECMG 2212/2214 CAVOK
ATIS : +33 1 49 75 65 80
No reported NOTAMs for that airfield.



MET'MAP, your aeronautical weather chart ! - Copyright ORBIFLY December 2007 - Disclaimer

ORBIFLY MET'MAP TEAM :

Programming & Development : Alexandra Zaïnal
Concept & Development : Baudouin d'Aumeries
Co-Development & Prog : Marc-Olivier Méhu
Technical & hardware support : Manuel Goepfert

Contact : metmap@orbifly.com




SOURCES & CREDITS :

   NOAA